sensor_id;sensor_type;location;lat;lon;timestamp;P1;durP1;ratioP1;P2;durP2;ratioP2
4963;SDS011;2497;47.410;9.740;2023-04-08T00:01:00;2.70;;;2.17;;
4963;SDS011;2497;47.410;9.740;2023-04-08T00:03:28;2.23;;;2.00;;
4963;SDS011;2497;47.410;9.740;2023-04-08T00:05:56;2.00;;;1.70;;
4963;SDS011;2497;47.410;9.740;2023-04-08T00:08:25;2.80;;;1.67;;
4963;SDS011;2497;47.410;9.740;2023-04-08T00:10:52;3.03;;;1.73;;
4963;SDS011;2497;47.410;9.740;2023-04-08T00:13:19;4.10;;;2.30;;
4963;SDS011;2497;47.410;9.740;2023-04-08T00:15:46;3.00;;;1.93;;
4963;SDS011;2497;47.410;9.740;2023-04-08T00:18:14;2.30;;;1.63;;
4963;SDS011;2497;47.410;9.740;2023-04-08T00:20:44;3.60;;;1.77;;
4963;SDS011;2497;47.410;9.740;2023-04-08T00:23:11;1.97;;;1.43;;
4963;SDS011;2497;47.410;9.740;2023-04-08T00:25:38;1.73;;;1.50;;
4963;SDS011;2497;47.410;9.740;2023-04-08T00:28:05;4.50;;;1.77;;
4963;SDS011;2497;47.410;9.740;2023-04-08T00:30:33;2.03;;;1.53;;
4963;SDS011;2497;47.410;9.740;2023-04-08T00:33:00;2.40;;;1.83;;
4963;SDS011;2497;47.410;9.740;2023-04-08T00:35:27;1.60;;;1.30;;
4963;SDS011;2497;47.410;9.740;2023-04-08T00:37:57;1.90;;;1.60;;
4963;SDS011;2497;47.410;9.740;2023-04-08T00:40:25;1.77;;;1.40;;
4963;SDS011;2497;47.410;9.740;2023-04-08T00:42:52;1.83;;;1.40;;
4963;SDS011;2497;47.410;9.740;2023-04-08T00:45:19;2.47;;;1.60;;
4963;SDS011;2497;47.410;9.740;2023-04-08T00:47:46;2.13;;;1.40;;
4963;SDS011;2497;47.410;9.740;2023-04-08T00:50:16;2.30;;;1.47;;
4963;SDS011;2497;47.410;9.740;2023-04-08T00:52:44;2.13;;;1.40;;
4963;SDS011;2497;47.410;9.740;2023-04-08T00:55:12;1.50;;;1.30;;
4963;SDS011;2497;47.410;9.740;2023-04-08T00:57:39;1.70;;;1.47;;
4963;SDS011;2497;47.410;9.740;2023-04-08T01:00:08;1.83;;;1.37;;
4963;SDS011;2497;47.410;9.740;2023-04-08T01:02:38;1.90;;;1.20;;
4963;SDS011;2497;47.410;9.740;2023-04-08T01:05:12;3.20;;;1.87;;
4963;SDS011;2497;47.410;9.740;2023-04-08T01:07:44;2.50;;;1.30;;
4963;SDS011;2497;47.410;9.740;2023-04-08T01:10:16;2.00;;;1.50;;
4963;SDS011;2497;47.410;9.740;2023-04-08T01:12:47;1.93;;;1.70;;
4963;SDS011;2497;47.410;9.740;2023-04-08T01:15:17;2.13;;;1.40;;
4963;SDS011;2497;47.410;9.740;2023-04-08T01:17:45;2.67;;;1.83;;
4963;SDS011;2497;47.410;9.740;2023-04-08T01:20:13;3.97;;;1.73;;
4963;SDS011;2497;47.410;9.740;2023-04-08T01:22:47;1.50;;;1.30;;
4963;SDS011;2497;47.410;9.740;2023-04-08T01:25:25;3.07;;;1.70;;
4963;SDS011;2497;47.410;9.740;2023-04-08T01:27:59;4.33;;;1.40;;
4963;SDS011;2497;47.410;9.740;2023-04-08T01:30:30;2.63;;;2.00;;
4963;SDS011;2497;47.410;9.740;2023-04-08T01:32:59;2.77;;;1.70;;
4963;SDS011;2497;47.410;9.740;2023-04-08T01:35:27;5.03;;;1.60;;
4963;SDS011;2497;47.410;9.740;2023-04-08T01:37:57;3.67;;;1.90;;
4963;SDS011;2497;47.410;9.740;2023-04-08T01:40:25;2.00;;;1.60;;
4963;SDS011;2497;47.410;9.740;2023-04-08T01:42:53;2.33;;;1.80;;
4963;SDS011;2497;47.410;9.740;2023-04-08T01:45:23;2.30;;;1.67;;
4963;SDS011;2497;47.410;9.740;2023-04-08T01:47:52;2.97;;;1.77;;
4963;SDS011;2497;47.410;9.740;2023-04-08T01:50:19;2.00;;;1.40;;
4963;SDS011;2497;47.410;9.740;2023-04-08T01:52:48;1.77;;;1.40;;
4963;SDS011;2497;47.410;9.740;2023-04-08T01:55:18;2.17;;;1.30;;
4963;SDS011;2497;47.410;9.740;2023-04-08T01:57:47;3.37;;;1.70;;
4963;SDS011;2497;47.410;9.740;2023-04-08T02:00:17;1.67;;;1.57;;
4963;SDS011;2497;47.410;9.740;2023-04-08T02:02:49;1.90;;;1.43;;
4963;SDS011;2497;47.410;9.740;2023-04-08T02:05:17;2.60;;;1.50;;
4963;SDS011;2497;47.410;9.740;2023-04-08T02:07:45;2.13;;;1.73;;
4963;SDS011;2497;47.410;9.740;2023-04-08T02:10:12;2.27;;;1.40;;
4963;SDS011;2497;47.410;9.740;2023-04-08T02:12:40;1.77;;;1.67;;
4963;SDS011;2497;47.410;9.740;2023-04-08T02:15:08;3.03;;;1.70;;
4963;SDS011;2497;47.410;9.740;2023-04-08T02:17:38;3.07;;;1.50;;
4963;SDS011;2497;47.410;9.740;2023-04-08T02:20:12;3.33;;;1.83;;
4963;SDS011;2497;47.410;9.740;2023-04-08T02:22:46;2.10;;;1.43;;
4963;SDS011;2497;47.410;9.740;2023-04-08T02:25:15;5.03;;;1.53;;
4963;SDS011;2497;47.410;9.740;2023-04-08T02:27:45;2.23;;;1.63;;
4963;SDS011;2497;47.410;9.740;2023-04-08T02:30:13;2.37;;;1.57;;
4963;SDS011;2497;47.410;9.740;2023-04-08T02:32:42;2.73;;;1.83;;
4963;SDS011;2497;47.410;9.740;2023-04-08T02:35:12;2.60;;;1.60;;
4963;SDS011;2497;47.410;9.740;2023-04-08T02:37:41;2.40;;;2.00;;
4963;SDS011;2497;47.410;9.740;2023-04-08T02:40:22;3.40;;;1.70;;
4963;SDS011;2497;47.410;9.740;2023-04-08T02:42:53;2.57;;;1.80;;
4963;SDS011;2497;47.410;9.740;2023-04-08T02:45:20;2.73;;;1.63;;
4963;SDS011;2497;47.410;9.740;2023-04-08T02:47:48;2.00;;;1.67;;
4963;SDS011;2497;47.410;9.740;2023-04-08T02:50:16;1.90;;;1.70;;
4963;SDS011;2497;47.410;9.740;2023-04-08T02:52:43;3.10;;;1.80;;
4963;SDS011;2497;47.410;9.740;2023-04-08T02:55:11;1.90;;;1.50;;
4963;SDS011;2497;47.410;9.740;2023-04-08T02:57:39;2.33;;;1.63;;
4963;SDS011;2497;47.410;9.740;2023-04-08T03:00:08;4.27;;;2.17;;
4963;SDS011;2497;47.410;9.740;2023-04-08T03:02:36;2.03;;;1.50;;
4963;SDS011;2497;47.410;9.740;2023-04-08T03:05:03;2.87;;;1.30;;
4963;SDS011;2497;47.410;9.740;2023-04-08T03:07:32;2.33;;;1.53;;
4963;SDS011;2497;47.410;9.740;2023-04-08T03:10:00;2.40;;;1.60;;
4963;SDS011;2497;47.410;9.740;2023-04-08T03:12:27;2.80;;;1.50;;
4963;SDS011;2497;47.410;9.740;2023-04-08T03:14:55;2.07;;;1.80;;
4963;SDS011;2497;47.410;9.740;2023-04-08T03:17:22;2.70;;;2.00;;
4963;SDS011;2497;47.410;9.740;2023-04-08T03:19:49;1.77;;;1.50;;
4963;SDS011;2497;47.410;9.740;2023-04-08T03:22:16;2.40;;;1.77;;
4963;SDS011;2497;47.410;9.740;2023-04-08T03:24:45;2.20;;;1.73;;
4963;SDS011;2497;47.410;9.740;2023-04-08T03:27:12;3.03;;;1.73;;
4963;SDS011;2497;47.410;9.740;2023-04-08T03:29:39;2.60;;;1.90;;
4963;SDS011;2497;47.410;9.740;2023-04-08T03:32:07;1.93;;;1.40;;
4963;SDS011;2497;47.410;9.740;2023-04-08T03:34:34;3.03;;;1.77;;
4963;SDS011;2497;47.410;9.740;2023-04-08T03:37:01;2.40;;;2.20;;
4963;SDS011;2497;47.410;9.740;2023-04-08T03:39:28;3.10;;;2.13;;
4963;SDS011;2497;47.410;9.740;2023-04-08T03:41:57;4.00;;;3.03;;
4963;SDS011;2497;47.410;9.740;2023-04-08T03:44:25;7.40;;;4.33;;
4963;SDS011;2497;47.410;9.740;2023-04-08T03:46:52;5.33;;;3.23;;
4963;SDS011;2497;47.410;9.740;2023-04-08T03:49:19;5.97;;;4.07;;
4963;SDS011;2497;47.410;9.740;2023-04-08T03:51:46;8.73;;;4.70;;
4963;SDS011;2497;47.410;9.740;2023-04-08T03:54:14;7.07;;;4.77;;
4963;SDS011;2497;47.410;9.740;2023-04-08T03:56:41;11.53;;;4.60;;
4963;SDS011;2497;47.410;9.740;2023-04-08T03:59:09;8.10;;;4.87;;
4963;SDS011;2497;47.410;9.740;2023-04-08T04:01:36;6.80;;;4.47;;
4963;SDS011;2497;47.410;9.740;2023-04-08T04:04:03;10.10;;;5.57;;
4963;SDS011;2497;47.410;9.740;2023-04-08T04:06:30;14.73;;;6.40;;
4963;SDS011;2497;47.410;9.740;2023-04-08T04:08:58;9.43;;;6.10;;
4963;SDS011;2497;47.410;9.740;2023-04-08T04:11:25;13.43;;;6.90;;
4963;SDS011;2497;47.410;9.740;2023-04-08T04:13:52;10.43;;;6.30;;
4963;SDS011;2497;47.410;9.740;2023-04-08T04:16:21;12.13;;;6.93;;
4963;SDS011;2497;47.410;9.740;2023-04-08T04:18:48;9.73;;;5.07;;
4963;SDS011;2497;47.410;9.740;2023-04-08T04:21:15;10.27;;;5.33;;
4963;SDS011;2497;47.410;9.740;2023-04-08T04:23:42;9.30;;;5.37;;
4963;SDS011;2497;47.410;9.740;2023-04-08T04:26:09;8.73;;;5.70;;
4963;SDS011;2497;47.410;9.740;2023-04-08T04:28:36;14.10;;;7.27;;
4963;SDS011;2497;47.410;9.740;2023-04-08T04:31:04;11.07;;;6.60;;
4963;SDS011;2497;47.410;9.740;2023-04-08T04:33:32;10.57;;;6.73;;
4963;SDS011;2497;47.410;9.740;2023-04-08T04:35:59;12.40;;;6.20;;
4963;SDS011;2497;47.410;9.740;2023-04-08T04:38:27;13.37;;;6.60;;
4963;SDS011;2497;47.410;9.740;2023-04-08T04:40:54;11.43;;;6.80;;
4963;SDS011;2497;47.410;9.740;2023-04-08T04:43:22;12.00;;;6.73;;
4963;SDS011;2497;47.410;9.740;2023-04-08T04:45:49;12.40;;;6.60;;
4963;SDS011;2497;47.410;9.740;2023-04-08T04:48:16;11.30;;;7.33;;
4963;SDS011;2497;47.410;9.740;2023-04-08T04:50:44;14.03;;;7.43;;
4963;SDS011;2497;47.410;9.740;2023-04-08T04:53:20;15.47;;;7.47;;
4963;SDS011;2497;47.410;9.740;2023-04-08T04:55:47;13.00;;;8.00;;
4963;SDS011;2497;47.410;9.740;2023-04-08T04:58:15;12.47;;;7.30;;
4963;SDS011;2497;47.410;9.740;2023-04-08T05:00:42;16.00;;;7.50;;
4963;SDS011;2497;47.410;9.740;2023-04-08T05:03:10;16.03;;;8.87;;
4963;SDS011;2497;47.410;9.740;2023-04-08T05:05:37;22.97;;;10.30;;
4963;SDS011;2497;47.410;9.740;2023-04-08T05:08:06;34.70;;;24.37;;
4963;SDS011;2497;47.410;9.740;2023-04-08T05:10:33;18.97;;;12.50;;
4963;SDS011;2497;47.410;9.740;2023-04-08T05:13:00;11.93;;;8.20;;
4963;SDS011;2497;47.410;9.740;2023-04-08T05:15:27;11.37;;;7.93;;
4963;SDS011;2497;47.410;9.740;2023-04-08T05:17:54;11.87;;;7.20;;
4963;SDS011;2497;47.410;9.740;2023-04-08T05:20:21;10.47;;;5.80;;
4963;SDS011;2497;47.410;9.740;2023-04-08T05:22:48;10.27;;;6.10;;
4963;SDS011;2497;47.410;9.740;2023-04-08T05:25:17;9.50;;;5.77;;
4963;SDS011;2497;47.410;9.740;2023-04-08T05:27:44;9.70;;;5.57;;
4963;SDS011;2497;47.410;9.740;2023-04-08T05:30:12;8.40;;;5.60;;
4963;SDS011;2497;47.410;9.740;2023-04-08T05:32:39;8.33;;;4.87;;
4963;SDS011;2497;47.410;9.740;2023-04-08T05:35:06;8.27;;;5.97;;
4963;SDS011;2497;47.410;9.740;2023-04-08T05:37:34;10.10;;;5.37;;
4963;SDS011;2497;47.410;9.740;2023-04-08T05:40:01;8.20;;;4.57;;
4963;SDS011;2497;47.410;9.740;2023-04-08T05:42:30;6.57;;;4.30;;
4963;SDS011;2497;47.410;9.740;2023-04-08T05:44:57;8.13;;;3.97;;
4963;SDS011;2497;47.410;9.740;2023-04-08T05:47:24;5.80;;;3.80;;
4963;SDS011;2497;47.410;9.740;2023-04-08T05:49:51;6.97;;;4.50;;
4963;SDS011;2497;47.410;9.740;2023-04-08T05:52:18;5.87;;;3.80;;
4963;SDS011;2497;47.410;9.740;2023-04-08T05:54:45;8.67;;;3.90;;
4963;SDS011;2497;47.410;9.740;2023-04-08T05:57:12;8.20;;;4.63;;
4963;SDS011;2497;47.410;9.740;2023-04-08T05:59:42;8.50;;;4.70;;
4963;SDS011;2497;47.410;9.740;2023-04-08T06:02:09;5.87;;;3.80;;
4963;SDS011;2497;47.410;9.740;2023-04-08T06:04:36;7.00;;;3.87;;
4963;SDS011;2497;47.410;9.740;2023-04-08T06:07:03;5.40;;;3.30;;
4963;SDS011;2497;47.410;9.740;2023-04-08T06:09:33;6.87;;;4.10;;
4963;SDS011;2497;47.410;9.740;2023-04-08T06:12:03;6.70;;;4.50;;
4963;SDS011;2497;47.410;9.740;2023-04-08T06:14:30;7.07;;;3.60;;
4963;SDS011;2497;47.410;9.740;2023-04-08T06:16:59;5.93;;;3.43;;
4963;SDS011;2497;47.410;9.740;2023-04-08T06:19:26;5.33;;;3.50;;
4963;SDS011;2497;47.410;9.740;2023-04-08T06:21:53;6.70;;;3.70;;
4963;SDS011;2497;47.410;9.740;2023-04-08T06:24:23;5.73;;;3.63;;
4963;SDS011;2497;47.410;9.740;2023-04-08T06:26:51;12.53;;;5.87;;
4963;SDS011;2497;47.410;9.740;2023-04-08T06:29:19;4.33;;;2.87;;
4963;SDS011;2497;47.410;9.740;2023-04-08T06:31:46;5.87;;;3.73;;
4963;SDS011;2497;47.410;9.740;2023-04-08T06:34:17;8.53;;;3.43;;
4963;SDS011;2497;47.410;9.740;2023-04-08T06:36:44;5.53;;;3.20;;
4963;SDS011;2497;47.410;9.740;2023-04-08T06:39:12;3.90;;;2.90;;
4963;SDS011;2497;47.410;9.740;2023-04-08T06:41:41;3.97;;;2.80;;
4963;SDS011;2497;47.410;9.740;2023-04-08T06:44:08;5.43;;;3.03;;
4963;SDS011;2497;47.410;9.740;2023-04-08T06:46:35;4.20;;;2.93;;
4963;SDS011;2497;47.410;9.740;2023-04-08T06:49:02;3.73;;;2.60;;
4963;SDS011;2497;47.410;9.740;2023-04-08T06:51:32;5.87;;;3.00;;
4963;SDS011;2497;47.410;9.740;2023-04-08T06:53:59;4.07;;;2.80;;
4963;SDS011;2497;47.410;9.740;2023-04-08T06:56:26;4.83;;;2.80;;
4963;SDS011;2497;47.410;9.740;2023-04-08T06:58:53;2.67;;;2.10;;
4963;SDS011;2497;47.410;9.740;2023-04-08T07:01:20;2.80;;;2.37;;
4963;SDS011;2497;47.410;9.740;2023-04-08T07:03:48;3.57;;;2.00;;
4963;SDS011;2497;47.410;9.740;2023-04-08T07:06:15;2.73;;;1.87;;
4963;SDS011;2497;47.410;9.740;2023-04-08T07:08:46;3.00;;;2.17;;
4963;SDS011;2497;47.410;9.740;2023-04-08T07:11:13;5.13;;;2.77;;
4963;SDS011;2497;47.410;9.740;2023-04-08T07:13:40;3.80;;;2.67;;
4963;SDS011;2497;47.410;9.740;2023-04-08T07:16:07;4.23;;;2.30;;
4963;SDS011;2497;47.410;9.740;2023-04-08T07:18:35;3.10;;;2.30;;
4963;SDS011;2497;47.410;9.740;2023-04-08T07:21:02;3.80;;;2.80;;
4963;SDS011;2497;47.410;9.740;2023-04-08T07:23:29;2.80;;;2.40;;
4963;SDS011;2497;47.410;9.740;2023-04-08T07:26:01;4.47;;;2.40;;
4963;SDS011;2497;47.410;9.740;2023-04-08T07:28:57;4.30;;;2.80;;
4963;SDS011;2497;47.410;9.740;2023-04-08T07:31:42;5.43;;;2.50;;
4963;SDS011;2497;47.410;9.740;2023-04-08T07:34:11;4.60;;;2.23;;
4963;SDS011;2497;47.410;9.740;2023-04-08T07:36:38;3.27;;;2.07;;
4963;SDS011;2497;47.410;9.740;2023-04-08T07:39:07;4.77;;;2.40;;
4963;SDS011;2497;47.410;9.740;2023-04-08T07:41:36;4.60;;;2.80;;
4963;SDS011;2497;47.410;9.740;2023-04-08T07:44:13;3.17;;;2.37;;
4963;SDS011;2497;47.410;9.740;2023-04-08T07:46:41;3.53;;;2.37;;
4963;SDS011;2497;47.410;9.740;2023-04-08T07:49:09;4.80;;;2.30;;
4963;SDS011;2497;47.410;9.740;2023-04-08T07:51:38;2.73;;;2.30;;
4963;SDS011;2497;47.410;9.740;2023-04-08T07:54:07;3.23;;;2.30;;
4963;SDS011;2497;47.410;9.740;2023-04-08T07:56:42;3.63;;;2.33;;
4963;SDS011;2497;47.410;9.740;2023-04-08T07:59:15;3.53;;;2.10;;
4963;SDS011;2497;47.410;9.740;2023-04-08T08:01:42;3.57;;;2.40;;
4963;SDS011;2497;47.410;9.740;2023-04-08T08:04:11;3.10;;;2.23;;
4963;SDS011;2497;47.410;9.740;2023-04-08T08:06:38;3.73;;;2.30;;
4963;SDS011;2497;47.410;9.740;2023-04-08T08:09:07;3.07;;;2.10;;
4963;SDS011;2497;47.410;9.740;2023-04-08T08:11:40;5.07;;;1.83;;
4963;SDS011;2497;47.410;9.740;2023-04-08T08:14:12;2.60;;;2.00;;
4963;SDS011;2497;47.410;9.740;2023-04-08T08:16:42;3.77;;;2.17;;
4963;SDS011;2497;47.410;9.740;2023-04-08T08:19:09;2.80;;;1.70;;
4963;SDS011;2497;47.410;9.740;2023-04-08T08:21:38;4.03;;;2.50;;
4963;SDS011;2497;47.410;9.740;2023-04-08T08:24:07;3.83;;;1.83;;
4963;SDS011;2497;47.410;9.740;2023-04-08T08:26:44;2.40;;;1.60;;
4963;SDS011;2497;47.410;9.740;2023-04-08T08:29:13;4.80;;;2.13;;
4963;SDS011;2497;47.410;9.740;2023-04-08T08:31:40;5.50;;;2.13;;
4963;SDS011;2497;47.410;9.740;2023-04-08T08:34:11;2.97;;;2.17;;
4963;SDS011;2497;47.410;9.740;2023-04-08T08:36:42;5.50;;;1.97;;
4963;SDS011;2497;47.410;9.740;2023-04-08T08:39:12;4.83;;;3.40;;
4963;SDS011;2497;47.410;9.740;2023-04-08T08:41:45;5.50;;;3.40;;
4963;SDS011;2497;47.410;9.740;2023-04-08T08:44:35;5.87;;;3.30;;
4963;SDS011;2497;47.410;9.740;2023-04-08T08:47:14;4.80;;;2.67;;
4963;SDS011;2497;47.410;9.740;2023-04-08T08:49:52;8.73;;;3.03;;
4963;SDS011;2497;47.410;9.740;2023-04-08T08:52:23;5.07;;;2.83;;
4963;SDS011;2497;47.410;9.740;2023-04-08T08:54:55;7.93;;;3.90;;
4963;SDS011;2497;47.410;9.740;2023-04-08T08:57:40;6.20;;;3.93;;
4963;SDS011;2497;47.410;9.740;2023-04-08T09:00:11;5.47;;;3.80;;
4963;SDS011;2497;47.410;9.740;2023-04-08T09:02:42;6.87;;;3.73;;
4963;SDS011;2497;47.410;9.740;2023-04-08T09:05:13;10.77;;;4.30;;
4963;SDS011;2497;47.410;9.740;2023-04-08T09:07:42;11.07;;;5.20;;
4963;SDS011;2497;47.410;9.740;2023-04-08T09:10:12;6.73;;;4.07;;
4963;SDS011;2497;47.410;9.740;2023-04-08T09:12:53;7.20;;;4.33;;
4963;SDS011;2497;47.410;9.740;2023-04-08T09:15:24;7.20;;;4.37;;
4963;SDS011;2497;47.410;9.740;2023-04-08T09:17:53;11.80;;;5.70;;
4963;SDS011;2497;47.410;9.740;2023-04-08T09:20:22;5.90;;;4.53;;
4963;SDS011;2497;47.410;9.740;2023-04-08T09:22:56;6.33;;;4.40;;
4963;SDS011;2497;47.410;9.740;2023-04-08T09:25:28;6.60;;;4.10;;
4963;SDS011;2497;47.410;9.740;2023-04-08T09:28:04;7.33;;;4.43;;
4963;SDS011;2497;47.410;9.740;2023-04-08T09:30:43;7.40;;;3.63;;
4963;SDS011;2497;47.410;9.740;2023-04-08T09:33:11;5.60;;;3.80;;
4963;SDS011;2497;47.410;9.740;2023-04-08T09:35:38;5.07;;;3.50;;
4963;SDS011;2497;47.410;9.740;2023-04-08T09:38:05;5.40;;;3.63;;
4963;SDS011;2497;47.410;9.740;2023-04-08T09:40:38;4.10;;;3.10;;
4963;SDS011;2497;47.410;9.740;2023-04-08T09:43:08;3.97;;;3.00;;
4963;SDS011;2497;47.410;9.740;2023-04-08T09:45:39;5.37;;;3.13;;
4963;SDS011;2497;47.410;9.740;2023-04-08T09:48:11;6.97;;;4.23;;
4963;SDS011;2497;47.410;9.740;2023-04-08T09:50:44;4.93;;;3.17;;
4963;SDS011;2497;47.410;9.740;2023-04-08T09:53:18;9.20;;;4.47;;
4963;SDS011;2497;47.410;9.740;2023-04-08T09:55:52;7.80;;;4.30;;
4963;SDS011;2497;47.410;9.740;2023-04-08T10:11:57;6.37;;;4.40;;
4963;SDS011;2497;47.410;9.740;2023-04-08T10:20:00;5.93;;;3.63;;
4963;SDS011;2497;47.410;9.740;2023-04-08T10:22:45;5.67;;;3.73;;
4963;SDS011;2497;47.410;9.740;2023-04-08T10:30:43;7.27;;;4.40;;
4963;SDS011;2497;47.410;9.740;2023-04-08T10:33:14;11.20;;;4.97;;
4963;SDS011;2497;47.410;9.740;2023-04-08T10:35:49;5.77;;;4.37;;
4963;SDS011;2497;47.410;9.740;2023-04-08T10:38:21;8.53;;;4.40;;
4963;SDS011;2497;47.410;9.740;2023-04-08T10:40:48;7.87;;;4.87;;
4963;SDS011;2497;47.410;9.740;2023-04-08T10:43:19;6.57;;;4.10;;
4963;SDS011;2497;47.410;9.740;2023-04-08T10:45:48;7.77;;;4.87;;
4963;SDS011;2497;47.410;9.740;2023-04-08T10:48:16;6.77;;;4.30;;
4963;SDS011;2497;47.410;9.740;2023-04-08T10:50:44;7.50;;;4.40;;
4963;SDS011;2497;47.410;9.740;2023-04-08T10:53:24;9.37;;;4.20;;
4963;SDS011;2497;47.410;9.740;2023-04-08T10:56:02;5.97;;;3.80;;
4963;SDS011;2497;47.410;9.740;2023-04-08T10:58:30;6.90;;;4.23;;
4963;SDS011;2497;47.410;9.740;2023-04-08T11:01:03;6.57;;;3.87;;
4963;SDS011;2497;47.410;9.740;2023-04-08T11:03:34;6.70;;;3.87;;
4963;SDS011;2497;47.410;9.740;2023-04-08T11:06:02;9.00;;;4.47;;
4963;SDS011;2497;47.410;9.740;2023-04-08T11:08:33;6.20;;;4.37;;
4963;SDS011;2497;47.410;9.740;2023-04-08T11:11:02;9.87;;;5.53;;
4963;SDS011;2497;47.410;9.740;2023-04-08T11:13:33;7.20;;;4.83;;
4963;SDS011;2497;47.410;9.740;2023-04-08T11:16:02;8.77;;;4.93;;
4963;SDS011;2497;47.410;9.740;2023-04-08T11:18:33;11.60;;;5.73;;
4963;SDS011;2497;47.410;9.740;2023-04-08T11:21:01;7.97;;;4.70;;
4963;SDS011;2497;47.410;9.740;2023-04-08T11:23:28;10.10;;;4.90;;
4963;SDS011;2497;47.410;9.740;2023-04-08T11:25:55;7.30;;;4.60;;
4963;SDS011;2497;47.410;9.740;2023-04-08T11:28:23;7.30;;;4.80;;
4963;SDS011;2497;47.410;9.740;2023-04-08T11:30:51;8.17;;;4.83;;
4963;SDS011;2497;47.410;9.740;2023-04-08T11:33:20;9.83;;;5.00;;
4963;SDS011;2497;47.410;9.740;2023-04-08T11:35:50;10.67;;;5.60;;
4963;SDS011;2497;47.410;9.740;2023-04-08T11:38:21;8.60;;;4.90;;
4963;SDS011;2497;47.410;9.740;2023-04-08T11:40:52;7.20;;;5.07;;
4963;SDS011;2497;47.410;9.740;2023-04-08T11:43:19;8.60;;;5.30;;
4963;SDS011;2497;47.410;9.740;2023-04-08T11:45:47;9.03;;;5.33;;
4963;SDS011;2497;47.410;9.740;2023-04-08T11:51:02;9.73;;;4.53;;
4963;SDS011;2497;47.410;9.740;2023-04-08T11:53:30;9.93;;;5.10;;
4963;SDS011;2497;47.410;9.740;2023-04-08T11:56:24;9.20;;;5.60;;
4963;SDS011;2497;47.410;9.740;2023-04-08T11:59:29;11.83;;;5.70;;
4963;SDS011;2497;47.410;9.740;2023-04-08T12:01:57;11.77;;;5.60;;
4963;SDS011;2497;47.410;9.740;2023-04-08T12:04:24;9.47;;;5.33;;
4963;SDS011;2497;47.410;9.740;2023-04-08T12:06:52;8.93;;;5.23;;
4963;SDS011;2497;47.410;9.740;2023-04-08T12:09:20;7.93;;;4.80;;
4963;SDS011;2497;47.410;9.740;2023-04-08T12:11:49;8.07;;;5.10;;
4963;SDS011;2497;47.410;9.740;2023-04-08T12:14:16;8.60;;;5.07;;
4963;SDS011;2497;47.410;9.740;2023-04-08T12:16:46;9.90;;;5.53;;
4963;SDS011;2497;47.410;9.740;2023-04-08T12:19:15;8.50;;;5.40;;
4963;SDS011;2497;47.410;9.740;2023-04-08T12:21:42;10.20;;;5.03;;
4963;SDS011;2497;47.410;9.740;2023-04-08T12:24:12;8.33;;;4.63;;
4963;SDS011;2497;47.410;9.740;2023-04-08T12:26:39;8.83;;;5.23;;
4963;SDS011;2497;47.410;9.740;2023-04-08T12:29:06;9.67;;;4.77;;
4963;SDS011;2497;47.410;9.740;2023-04-08T12:31:35;9.53;;;5.93;;
4963;SDS011;2497;47.410;9.740;2023-04-08T12:34:03;8.93;;;4.63;;
4963;SDS011;2497;47.410;9.740;2023-04-08T12:36:33;11.23;;;5.67;;
4963;SDS011;2497;47.410;9.740;2023-04-08T12:39:03;10.47;;;5.70;;
4963;SDS011;2497;47.410;9.740;2023-04-08T12:41:36;11.10;;;6.23;;
4963;SDS011;2497;47.410;9.740;2023-04-08T12:44:04;10.30;;;6.27;;
4963;SDS011;2497;47.410;9.740;2023-04-08T12:46:32;14.07;;;7.33;;
4963;SDS011;2497;47.410;9.740;2023-04-08T12:48:59;16.23;;;8.70;;
4963;SDS011;2497;47.410;9.740;2023-04-08T12:51:29;14.07;;;7.83;;
4963;SDS011;2497;47.410;9.740;2023-04-08T12:53:56;12.20;;;7.13;;
4963;SDS011;2497;47.410;9.740;2023-04-08T12:56:24;14.30;;;6.43;;
4963;SDS011;2497;47.410;9.740;2023-04-08T12:58:53;12.30;;;6.20;;
4963;SDS011;2497;47.410;9.740;2023-04-08T13:01:23;12.50;;;6.87;;
4963;SDS011;2497;47.410;9.740;2023-04-08T13:03:50;11.97;;;6.10;;
4963;SDS011;2497;47.410;9.740;2023-04-08T13:06:19;11.17;;;6.80;;
4963;SDS011;2497;47.410;9.740;2023-04-08T13:08:46;9.03;;;5.67;;
4963;SDS011;2497;47.410;9.740;2023-04-08T13:11:14;11.27;;;6.63;;
4963;SDS011;2497;47.410;9.740;2023-04-08T13:13:41;11.00;;;6.80;;
4963;SDS011;2497;47.410;9.740;2023-04-08T13:16:09;9.77;;;5.97;;
4963;SDS011;2497;47.410;9.740;2023-04-08T13:18:36;13.40;;;6.17;;
4963;SDS011;2497;47.410;9.740;2023-04-08T13:21:03;9.87;;;6.30;;
4963;SDS011;2497;47.410;9.740;2023-04-08T13:23:30;11.67;;;5.97;;
4963;SDS011;2497;47.410;9.740;2023-04-08T13:25:57;11.87;;;5.93;;
4963;SDS011;2497;47.410;9.740;2023-04-08T13:28:25;12.03;;;6.03;;
4963;SDS011;2497;47.410;9.740;2023-04-08T13:30:52;11.17;;;5.67;;
4963;SDS011;2497;47.410;9.740;2023-04-08T13:33:21;12.40;;;6.83;;
4963;SDS011;2497;47.410;9.740;2023-04-08T13:35:48;12.57;;;7.13;;
4963;SDS011;2497;47.410;9.740;2023-04-08T13:38:15;10.07;;;6.37;;
4963;SDS011;2497;47.410;9.740;2023-04-08T13:40:42;10.70;;;6.17;;
4963;SDS011;2497;47.410;9.740;2023-04-08T13:43:09;12.50;;;7.60;;
4963;SDS011;2497;47.410;9.740;2023-04-08T13:45:39;12.97;;;7.53;;
4963;SDS011;2497;47.410;9.740;2023-04-08T13:48:06;14.27;;;7.40;;
4963;SDS011;2497;47.410;9.740;2023-04-08T13:50:34;13.00;;;6.50;;
4963;SDS011;2497;47.410;9.740;2023-04-08T13:53:03;13.80;;;7.97;;
4963;SDS011;2497;47.410;9.740;2023-04-08T13:55:31;17.83;;;9.23;;
4963;SDS011;2497;47.410;9.740;2023-04-08T13:57:58;14.00;;;8.00;;
4963;SDS011;2497;47.410;9.740;2023-04-08T14:00:26;17.23;;;9.43;;
4963;SDS011;2497;47.410;9.740;2023-04-08T14:02:53;17.97;;;8.83;;
4963;SDS011;2497;47.410;9.740;2023-04-08T14:05:27;15.70;;;9.30;;
4963;SDS011;2497;47.410;9.740;2023-04-08T14:07:55;15.97;;;8.43;;
4963;SDS011;2497;47.410;9.740;2023-04-08T14:10:22;20.40;;;8.80;;
4963;SDS011;2497;47.410;9.740;2023-04-08T14:12:52;18.90;;;9.73;;
4963;SDS011;2497;47.410;9.740;2023-04-08T14:15:19;21.47;;;10.80;;
4963;SDS011;2497;47.410;9.740;2023-04-08T14:17:46;18.50;;;9.30;;
4963;SDS011;2497;47.410;9.740;2023-04-08T14:20:17;21.33;;;11.00;;
4963;SDS011;2497;47.410;9.740;2023-04-08T14:25:20;21.87;;;11.50;;
4963;SDS011;2497;47.410;9.740;2023-04-08T14:27:51;20.43;;;10.17;;
4963;SDS011;2497;47.410;9.740;2023-04-08T14:30:22;14.07;;;7.67;;
4963;SDS011;2497;47.410;9.740;2023-04-08T14:32:53;10.73;;;5.93;;
4963;SDS011;2497;47.410;9.740;2023-04-08T14:35:25;11.23;;;6.00;;
4963;SDS011;2497;47.410;9.740;2023-04-08T14:37:52;9.73;;;5.67;;
4963;SDS011;2497;47.410;9.740;2023-04-08T14:40:21;7.90;;;5.10;;
4963;SDS011;2497;47.410;9.740;2023-04-08T14:42:48;10.27;;;5.00;;
4963;SDS011;2497;47.410;9.740;2023-04-08T14:45:16;5.83;;;3.60;;
4963;SDS011;2497;47.410;9.740;2023-04-08T14:47:44;7.57;;;4.10;;
4963;SDS011;2497;47.410;9.740;2023-04-08T14:50:12;5.53;;;3.30;;
4963;SDS011;2497;47.410;9.740;2023-04-08T14:52:40;5.27;;;3.43;;
4963;SDS011;2497;47.410;9.740;2023-04-08T14:55:09;6.17;;;3.27;;
4963;SDS011;2497;47.410;9.740;2023-04-08T14:57:37;6.33;;;3.40;;
4963;SDS011;2497;47.410;9.740;2023-04-08T15:00:05;7.20;;;3.70;;
4963;SDS011;2497;47.410;9.740;2023-04-08T15:02:34;3.90;;;2.47;;
4963;SDS011;2497;47.410;9.740;2023-04-08T15:05:01;6.13;;;3.80;;
4963;SDS011;2497;47.410;9.740;2023-04-08T15:07:58;4.97;;;3.97;;
4963;SDS011;2497;47.410;9.740;2023-04-08T15:10:42;3.63;;;2.80;;
4963;SDS011;2497;47.410;9.740;2023-04-08T15:13:16;3.77;;;2.87;;
4963;SDS011;2497;47.410;9.740;2023-04-08T15:15:47;6.30;;;3.97;;
4963;SDS011;2497;47.410;9.740;2023-04-08T15:18:15;6.70;;;4.00;;
4963;SDS011;2497;47.410;9.740;2023-04-08T15:23:23;15.87;;;6.03;;
4963;SDS011;2497;47.410;9.740;2023-04-08T15:25:54;8.83;;;4.47;;
4963;SDS011;2497;47.410;9.740;2023-04-08T15:28:35;11.20;;;4.80;;
4963;SDS011;2497;47.410;9.740;2023-04-08T15:31:06;10.23;;;4.83;;
4963;SDS011;2497;47.410;9.740;2023-04-08T15:33:34;9.53;;;4.23;;
4963;SDS011;2497;47.410;9.740;2023-04-08T15:36:05;7.80;;;4.20;;
4963;SDS011;2497;47.410;9.740;2023-04-08T15:38:53;7.03;;;3.83;;
4963;SDS011;2497;47.410;9.740;2023-04-08T15:43:58;7.53;;;3.67;;
4963;SDS011;2497;47.410;9.740;2023-04-08T15:46:25;8.97;;;3.97;;
4963;SDS011;2497;47.410;9.740;2023-04-08T15:48:53;8.40;;;4.63;;
4963;SDS011;2497;47.410;9.740;2023-04-08T15:51:29;5.60;;;3.43;;
4963;SDS011;2497;47.410;9.740;2023-04-08T15:54:00;5.57;;;3.17;;
4963;SDS011;2497;47.410;9.740;2023-04-08T15:56:31;7.17;;;3.90;;
4963;SDS011;2497;47.410;9.740;2023-04-08T15:59:05;6.90;;;3.60;;
4963;SDS011;2497;47.410;9.740;2023-04-08T16:01:32;6.37;;;4.37;;